createdAt,value
2018-05-14T00:00:01.461Z,8.9
2018-05-14T00:05:01.402Z,9.0
2018-05-14T00:10:01.495Z,8.8
2018-05-14T00:15:01.370Z,8.6
2018-05-14T00:20:01.535Z,8.5
2018-05-14T00:25:01.396Z,8.6
2018-05-14T00:30:01.475Z,8.3
2018-05-14T00:35:06.583Z,8.4
2018-05-14T00:40:01.419Z,8.7
2018-05-14T00:45:01.383Z,8.8
2018-05-14T00:50:01.542Z,8.8
2018-05-14T01:15:01.584Z,7.8
2018-05-14T01:20:01.549Z,9.6
2018-05-14T01:25:01.468Z,9.1
2018-05-14T01:30:01.470Z,8.6
2018-05-14T01:35:01.471Z,8.6
2018-05-14T01:40:01.693Z,8.7
2018-05-14T01:45:01.498Z,8.3
2018-05-14T01:50:01.628Z,8.5
2018-05-14T01:55:01.491Z,8.7
2018-05-14T02:00:01.949Z,8.8
2018-05-14T02:05:01.592Z,9.2
2018-05-14T02:10:01.558Z,9.4
2018-05-14T02:15:01.424Z,9.2
2018-05-14T02:20:01.526Z,9.6
2018-05-14T02:25:01.465Z,10.1
2018-05-14T02:30:01.524Z,9.9
2018-05-14T02:35:01.472Z,10.3
2018-05-14T02:40:01.574Z,10.8
2018-05-14T02:45:01.601Z,11.1
2018-05-14T02:50:01.526Z,10.9
2018-05-14T02:55:01.441Z,11.1
2018-05-14T03:00:01.677Z,11.0
2018-05-14T03:05:01.982Z,11.2
2018-05-14T03:10:01.552Z,11.4
2018-05-14T03:15:01.452Z,11.5
2018-05-14T03:20:01.481Z,11.7
2018-05-14T03:25:01.513Z,11.9
2018-05-14T03:30:01.551Z,11.9
2018-05-14T03:40:01.580Z,11.8
2018-05-14T03:45:01.516Z,11.6
2018-05-14T03:55:01.629Z,11.7
2018-05-14T04:15:01.398Z,14.0
2018-05-14T04:20:01.347Z,14.0
2018-05-14T04:25:01.422Z,13.7
2018-05-14T04:30:01.347Z,13.5
2018-05-14T04:35:01.212Z,13.5
2018-05-14T04:40:01.342Z,13.5
2018-05-14T04:45:01.254Z,13.2
2018-05-14T04:50:01.388Z,13.1
2018-05-14T04:55:01.221Z,13.1
2018-05-14T05:00:01.441Z,13.1
2018-05-14T05:05:01.272Z,12.5
2018-05-14T05:10:01.336Z,12.4
2018-05-14T05:15:01.237Z,12.1
2018-05-14T05:20:01.382Z,11.5
2018-05-14T05:25:06.241Z,10.8
2018-05-14T05:30:06.397Z,10.7
2018-05-14T05:35:06.264Z,10.9
2018-05-14T05:40:01.293Z,11.2
2018-05-14T05:45:06.229Z,11.4
2018-05-14T05:50:01.366Z,11.8
2018-05-14T05:55:01.305Z,11.9
2018-05-14T06:00:01.337Z,11.5
2018-05-14T06:05:01.289Z,11.5
2018-05-14T06:10:01.450Z,11.4
2018-05-14T06:15:01.280Z,11.0
2018-05-14T06:25:01.399Z,10.6
2018-05-14T06:30:01.340Z,10.5
2018-05-14T06:35:01.247Z,10.5
2018-05-14T06:40:01.363Z,11.0
2018-05-14T06:45:01.284Z,10.8
2018-05-14T06:50:01.359Z,11.0
2018-05-14T07:00:01.353Z,10.5
2018-05-14T07:05:01.290Z,10.1
2018-05-14T07:15:01.351Z,10.4
2018-05-14T07:20:01.350Z,10.5
2018-05-14T07:25:01.306Z,10.7
2018-05-14T07:30:01.352Z,10.6
2018-05-14T07:35:01.261Z,10.2
2018-05-14T07:40:01.521Z,10.2
2018-05-14T07:45:01.298Z,9.9
2018-05-14T07:50:01.365Z,10.0
2018-05-14T08:00:01.356Z,9.8
2018-05-14T08:05:01.295Z,9.6
2018-05-14T08:10:01.446Z,9.4
2018-05-14T08:15:01.303Z,9.3
2018-05-14T08:25:01.366Z,8.9
2018-05-14T08:30:01.303Z,9.1
2018-05-14T08:35:01.274Z,9.1
2018-05-14T08:40:01.344Z,8.9
2018-05-14T08:45:01.562Z,9.2
2018-05-14T08:50:01.461Z,9.4
2018-05-14T08:55:01.337Z,9.4
2018-05-14T09:00:01.496Z,9.4
2018-05-14T09:05:01.318Z,9.0
2018-05-14T09:10:01.415Z,8.8
2018-05-14T09:15:01.379Z,8.7
2018-05-14T09:20:01.486Z,8.5
2018-05-14T09:30:01.441Z,8.4
2018-05-14T09:35:01.315Z,8.4
2018-05-14T09:40:01.401Z,9.0
2018-05-14T09:45:01.270Z,9.2
2018-05-14T09:50:02.741Z,8.9
2018-05-14T09:55:01.323Z,9.2
2018-05-14T10:00:01.454Z,9.4
2018-05-14T10:05:01.296Z,8.4
2018-05-14T10:10:01.376Z,8.1
2018-05-14T10:15:01.369Z,8.7
2018-05-14T10:20:01.331Z,9.0
2018-05-14T10:25:01.432Z,9.2
2018-05-14T10:30:01.502Z,9.8
2018-05-14T10:35:01.367Z,10.1
2018-05-14T10:40:01.388Z,9.6
2018-05-14T10:45:01.284Z,9.5
2018-05-14T10:50:01.385Z,9.4
2018-05-14T10:55:01.374Z,9.8
2018-05-14T11:00:01.452Z,9.7
2018-05-14T11:05:01.483Z,9.8
2018-05-14T11:10:01.377Z,9.8
2018-05-14T11:15:01.387Z,10.0
2018-05-14T11:20:01.380Z,9.4
2018-05-14T11:30:01.389Z,9.6
2018-05-14T11:35:01.387Z,9.6
2018-05-14T11:40:01.414Z,9.2
2018-05-14T11:45:01.335Z,9.2
2018-05-14T11:50:01.464Z,8.5
2018-05-14T11:55:01.403Z,8.6
2018-05-14T12:00:01.507Z,8.1
2018-05-14T12:05:01.414Z,8.3
2018-05-14T12:10:01.679Z,8.0
2018-05-14T12:15:01.414Z,8.6
2018-05-14T12:20:01.471Z,8.4
2018-05-14T12:25:01.418Z,8.9
2018-05-14T12:30:01.464Z,8.9
2018-05-14T12:35:01.413Z,9.1
2018-05-14T12:40:01.438Z,9.2
2018-05-14T12:45:01.322Z,9.0
2018-05-14T12:50:01.478Z,9.2
2018-05-14T13:00:01.707Z,9.6
2018-05-14T13:05:01.412Z,9.7
2018-05-14T13:10:01.453Z,9.7
2018-05-14T13:15:01.425Z,9.6
2018-05-14T13:20:01.560Z,9.8
2018-05-14T13:25:01.436Z,10.0
2018-05-14T13:30:01.494Z,10.2
2018-05-14T13:35:01.432Z,10.5
2018-05-14T13:40:01.600Z,10.8
2018-05-14T13:45:01.441Z,11.0
2018-05-14T13:50:01.528Z,11.0
2018-05-14T13:55:01.472Z,11.1
2018-05-14T14:00:01.504Z,11.1
2018-05-14T14:05:01.791Z,11.0
2018-05-14T14:10:01.544Z,11.0
2018-05-14T14:15:01.467Z,11.0
2018-05-14T14:20:02.478Z,11.4
2018-05-14T14:25:01.466Z,11.5
2018-05-14T14:30:01.551Z,11.8
2018-05-14T14:35:01.466Z,11.8
2018-05-14T14:40:01.495Z,11.9
2018-05-14T14:45:01.434Z,12.2
2018-05-14T14:50:01.537Z,12.6
2018-05-14T14:55:01.432Z,12.8
2018-05-14T15:00:01.502Z,14.9
2018-05-14T15:05:01.462Z,15.2
2018-05-14T15:10:01.629Z,14.9
2018-05-14T15:15:01.543Z,15.1
2018-05-14T15:20:01.902Z,15.2
2018-05-14T15:25:01.445Z,13.4
2018-05-14T15:30:01.615Z,13.2
2018-05-14T15:35:01.483Z,13.4
2018-05-14T15:40:01.675Z,13.0
2018-05-14T15:45:01.448Z,13.2
2018-05-14T15:50:06.850Z,13.2
2018-05-14T15:55:01.452Z,13.5
2018-05-14T16:00:01.554Z,13.5
2018-05-14T16:05:01.445Z,13.9
2018-05-14T16:10:01.522Z,13.9
2018-05-14T16:15:01.486Z,14.4
2018-05-14T16:25:01.532Z,14.8
2018-05-14T16:30:01.564Z,15.0
2018-05-14T16:35:01.436Z,15.2
2018-05-14T16:40:01.747Z,15.5
2018-05-14T16:45:01.477Z,15.6
2018-05-14T16:50:01.682Z,16.0
2018-05-14T16:55:01.512Z,16.1
2018-05-14T17:00:01.581Z,15.7
2018-05-14T17:05:01.430Z,15.6
2018-05-14T17:10:01.524Z,15.9
2018-05-14T17:15:01.488Z,15.5
2018-05-14T17:20:01.549Z,16.2
2018-05-14T17:25:01.527Z,16.6
2018-05-14T17:30:01.560Z,17.2
2018-05-14T17:35:01.462Z,17.6
2018-05-14T17:40:01.559Z,19.3
2018-05-14T17:45:01.560Z,19.2
2018-05-14T17:50:01.762Z,20.0
2018-05-14T17:55:01.569Z,20.0
2018-05-14T18:00:01.648Z,20.2
2018-05-14T18:05:01.514Z,19.4
2018-05-14T18:10:01.573Z,19.7
2018-05-14T18:15:01.516Z,19.8
2018-05-14T18:20:01.797Z,19.8
2018-05-14T18:30:01.580Z,19.6
2018-05-14T18:35:01.481Z,19.6
2018-05-14T18:40:01.634Z,19.2
2018-05-14T18:45:01.607Z,19.2
2018-05-14T18:50:01.738Z,19.0
2018-05-14T18:55:01.477Z,18.9
2018-05-14T19:00:01.811Z,18.8
2018-05-14T19:05:01.589Z,19.0
2018-05-14T19:10:01.648Z,19.1
2018-05-14T19:15:01.528Z,19.0
2018-05-14T19:20:01.592Z,19.2
2018-05-14T19:25:01.527Z,19.0
2018-05-14T19:30:02.309Z,19.2
2018-05-14T19:35:01.525Z,18.8
2018-05-14T19:40:01.705Z,19.1
2018-05-14T19:45:01.540Z,18.8
2018-05-14T19:50:01.600Z,19.1
2018-05-14T19:55:01.600Z,19.2
2018-05-14T20:00:01.740Z,19.4
2018-05-14T20:05:01.543Z,19.6
2018-05-14T20:11:01.623Z,19.8
2018-05-14T20:16:01.522Z,19.4
2018-05-14T20:21:01.588Z,18.8
2018-05-14T20:26:01.505Z,19.2
2018-05-14T20:31:01.672Z,19.6
2018-05-14T20:36:01.545Z,19.7
2018-05-14T20:41:01.640Z,20.5
2018-05-14T20:47:01.499Z,21.2
2018-05-14T20:52:01.723Z,21.2
2018-05-14T20:57:01.469Z,21.0
2018-05-14T21:02:01.615Z,20.9
2018-05-14T21:07:01.586Z,20.8
2018-05-14T21:12:01.726Z,20.9
2018-05-14T21:17:01.547Z,20.7
2018-05-14T21:22:01.640Z,20.6
2018-05-14T21:27:01.542Z,20.6
2018-05-14T21:32:01.597Z,20.8
2018-05-14T21:42:01.588Z,21.2
2018-05-14T21:47:01.502Z,21.0
2018-05-14T21:52:01.707Z,21.2
2018-05-14T21:57:01.563Z,20.9
2018-05-14T22:02:01.925Z,20.9
2018-05-14T22:07:01.565Z,20.4
2018-05-14T22:12:01.624Z,20.8
2018-05-14T22:17:01.502Z,20.7
2018-05-14T22:22:01.664Z,21.0
2018-05-14T22:27:01.550Z,21.3
2018-05-14T22:32:01.657Z,21.7
2018-05-14T22:42:01.594Z,22.2
2018-05-14T22:47:01.544Z,22.4
2018-05-14T22:52:01.670Z,22.6
2018-05-14T22:57:01.509Z,22.5
2018-05-14T23:02:01.671Z,22.2
2018-05-14T23:07:01.582Z,22.6
2018-05-14T23:12:01.664Z,22.6
2018-05-14T23:17:01.535Z,22.8
2018-05-14T23:22:01.639Z,23.2
2018-05-14T23:27:01.565Z,23.6
2018-05-14T23:32:01.602Z,23.7
2018-05-14T23:42:01.676Z,23.8
2018-05-14T23:47:01.504Z,23.7
2018-05-14T23:52:01.571Z,24.1
2018-05-14T23:57:01.543Z,24.1
